Time;durP1;ratioP1;P1;durP2;ratioP2;P2;SDS_P1;SDS_P2;PMS_P1;PMS_P2;Temp;Humidity;BMP_temperature;BMP_pressure;BME280_temperature;BME280_humidity;BME280_pressure;Samples;Min_cycle;Max_cycle;Signal;HPM_P1;HPM_P2
2023/03/24 00:00:38;;;;;;;20.10;16.60;;;;;;;12.37;53.65;99278.63;106185;1269;60433;-77
2023/03/24 00:03:07;;;;;;;21.10;16.00;;;;;;;12.30;53.69;99285.45;106822;1264;60032;-77
2023/03/24 00:05:35;;;;;;;22.30;16.50;;;;;;;12.25;53.87;99282.48;107737;1263;71491;-75
2023/03/24 00:08:09;;;;;;;19.80;15.30;;;;;;;12.19;54.10;99274.69;108008;1262;70434;-77
2023/03/24 00:10:39;;;;;;;19.10;15.10;;;;;;;12.13;54.26;99274.42;107553;1256;71704;-77
2023/03/24 00:13:08;;;;;;;18.70;14.90;;;;;;;12.09;54.13;99280.85;107624;1257;60344;-79
2023/03/24 00:15:37;;;;;;;22.70;15.40;;;;;;;12.06;54.36;99282.34;107488;1255;59966;-77
2023/03/24 00:18:09;;;;;;;18.50;15.30;;;;;;;12.04;54.47;99272.33;107782;1257;72022;-75
2023/03/24 00:20:37;;;;;;;18.60;16.40;;;;;;;11.99;54.65;99270.64;107360;1257;68406;-76
2023/03/24 00:23:06;;;;;;;22.20;16.40;;;;;;;11.96;54.74;99269.83;106368;1260;72296;-76
2023/03/24 00:25:39;;;;;;;19.40;15.70;;;;;;;11.92;54.72;99270.08;106044;1261;59667;-76
2023/03/24 00:28:10;;;;;;;23.70;17.70;;;;;;;11.90;54.87;99266.28;106428;1256;61376;-75
2023/03/24 00:30:40;;;;;;;18.70;16.20;;;;;;;11.86;54.99;99266.17;106581;1260;73943;-75
2023/03/24 00:33:08;;;;;;;19.20;15.50;;;;;;;11.84;55.01;99258.82;107191;1256;71368;-76
2023/03/24 00:35:43;;;;;;;22.70;16.20;;;;;;;11.82;54.99;99257.53;108110;1258;72678;-78
2023/03/24 00:38:14;;;;;;;20.40;15.10;;;;;;;11.79;54.95;99258.48;108406;1256;59984;-74
2023/03/24 00:40:47;;;;;;;19.80;15.80;;;;;;;11.79;55.00;99258.51;107556;1255;59132;-74
2023/03/24 00:43:16;;;;;;;24.90;16.20;;;;;;;11.78;55.22;99248.77;106740;1256;72719;-73
2023/03/24 00:45:45;;;;;;;21.30;15.70;;;;;;;11.75;55.38;99250.29;105971;1257;69461;-74
2023/03/24 00:48:19;;;;;;;20.30;15.00;;;;;;;11.72;55.18;99250.33;105830;1262;72205;-73
2023/03/24 00:50:48;;;;;;;19.40;14.80;;;;;;;11.70;55.42;99250.77;105835;1263;61575;-73
2023/03/24 00:53:17;;;;;;;18.70;15.10;;;;;;;11.69;55.50;99247.96;108747;1257;58240;-73
2023/03/24 00:55:48;;;;;;;21.50;15.20;;;;;;;11.65;55.84;99248.27;108879;1257;73011;-73
2023/03/24 00:58:20;;;;;;;18.10;15.70;;;;;;;11.62;55.84;99245.02;108986;1257;70162;-75
2023/03/24 01:00:52;;;;;;;20.20;16.00;;;;;;;11.60;56.04;99245.01;108949;1257;72814;-77
2023/03/24 01:03:26;;;;;;;18.70;14.80;;;;;;;11.58;56.05;99250.46;108664;1257;59351;-75
2023/03/24 01:05:56;;;;;;;25.50;16.80;;;;;;;11.55;56.13;99253.49;108645;1257;59948;-76
2023/03/24 01:08:24;;;;;;;21.40;16.50;;;;;;;11.52;56.07;99254.38;108668;1257;72575;-75
2023/03/24 01:10:53;;;;;;;20.90;15.80;;;;;;;11.50;56.10;99254.28;108610;1258;68893;-76
2023/03/24 01:13:27;;;;;;;21.20;15.80;;;;;;;11.47;56.21;99248.20;108359;1257;71550;-76
2023/03/24 01:15:56;;;;;;;18.90;14.40;;;;;;;11.46;56.16;99254.27;109065;1254;60602;-76
2023/03/24 01:18:24;;;;;;;20.80;14.80;;;;;;;11.44;56.13;99253.77;109067;1254;59007;-76
2023/03/24 01:20:52;;;;;;;18.50;14.20;;;;;;;11.44;56.15;99243.98;109149;1254;72081;-76
2023/03/24 01:23:22;;;;;;;21.20;15.60;;;;;;;11.42;56.54;99249.20;109337;1254;70325;-76
2023/03/24 01:25:50;;;;;;;19.90;15.30;;;;;;;11.41;56.41;99246.32;109324;1254;72404;-75
2023/03/24 01:28:23;;;;;;;22.30;15.20;;;;;;;11.40;56.48;99239.55;109225;1254;59418;-74
2023/03/24 01:30:52;;;;;;;21.60;15.40;;;;;;;11.38;56.46;99245.22;108680;1254;60077;-74
2023/03/24 01:33:21;;;;;;;18.30;14.90;;;;;;;11.37;56.51;99241.52;108157;1254;70971;-75
2023/03/24 01:35:50;;;;;;;18.70;15.10;;;;;;;11.35;56.75;99238.55;108071;1254;70548;-76
2023/03/24 01:38:19;;;;;;;22.60;16.40;;;;;;;11.33;56.82;99237.71;108826;1254;70713;-76
2023/03/24 01:40:47;;;;;;;20.40;15.30;;;;;;;11.31;56.69;99242.71;109059;1254;59370;-72
2023/03/24 01:43:25;;;;;;;20.40;15.10;;;;;;;11.31;56.76;99236.54;109232;1254;58297;-75
2023/03/24 01:46:04;;;;;;;19.20;14.90;;;;;;;11.31;56.71;99237.23;108941;1254;72497;-76
2023/03/24 01:48:51;;;;;;;17.20;14.40;;;;;;;11.30;56.75;99233.98;107374;1254;69542;-74
2023/03/24 01:51:26;;;;;;;23.40;15.60;;;;;;;11.29;56.87;99238.02;107258;1254;73767;-76
2023/03/24 01:54:16;;;;;;;24.30;16.50;;;;;;;11.28;56.88;99233.76;108651;1254;59745;-75
2023/03/24 01:56:54;;;;;;;20.70;15.60;;;;;;;11.26;56.97;99244.45;108398;1254;60140;-75
2023/03/24 01:59:27;;;;;;;18.40;14.30;;;;;;;11.24;56.97;99248.64;107918;1254;72777;-75
2023/03/24 02:02:09;;;;;;;20.90;15.00;;;;;;;11.22;56.87;99246.16;109132;1254;68291;-76
2023/03/24 02:04:54;;;;;;;18.20;12.80;;;;;;;11.21;57.01;99247.13;109141;1259;72550;-75
2023/03/24 02:07:28;;;;;;;18.30;14.20;;;;;;;11.21;57.07;99246.92;109180;1254;60814;-76
2023/03/24 02:10:16;;;;;;;13.90;12.30;;;;;;;11.21;57.02;99244.97;109061;1254;59260;-73
2023/03/24 02:12:45;;;;;;;18.00;13.70;;;;;;;11.22;57.00;99250.37;109135;1254;73047;-75
2023/03/24 02:15:16;;;;;;;16.10;13.80;;;;;;;11.23;57.10;99252.34;107744;1258;70377;-75
2023/03/24 02:17:56;;;;;;;18.90;14.20;;;;;;;11.24;56.98;99257.42;105957;1260;71835;-75
2023/03/24 02:20:42;;;;;;;18.60;14.00;;;;;;;11.24;56.95;99253.58;106130;1254;60442;-74
2023/03/24 02:23:20;;;;;;;20.10;15.10;;;;;;;11.24;57.01;99256.44;109177;1254;59703;-75
2023/03/24 02:26:06;;;;;;;18.60;14.70;;;;;;;11.25;57.14;99254.50;108857;1254;72102;-75
2023/03/24 02:28:45;;;;;;;18.30;14.20;;;;;;;11.28;57.16;99249.67;109171;1254;70082;-72
2023/03/24 02:31:23;;;;;;;18.80;14.00;;;;;;;11.31;57.00;99247.38;108997;1254;72364;-74
2023/03/24 02:34:10;;;;;;;19.70;13.80;;;;;;;11.33;57.11;99249.29;109038;1254;60411;-75
2023/03/24 02:36:54;;;;;;;19.20;15.60;;;;;;;11.34;57.19;99253.06;109154;1254;58729;-73
2023/03/24 02:39:44;;;;;;;18.50;15.00;;;;;;;11.34;57.35;99249.96;109181;1254;72810;-75
2023/03/24 02:42:30;;;;;;;20.70;15.80;;;;;;;11.33;57.29;99256.90;107947;1254;69363;-74
2023/03/24 02:45:32;;;;;;;20.40;14.60;;;;;;;11.31;57.32;99255.84;106145;1258;72369;-76
2023/03/24 02:48:42;;;;;;;19.40;15.60;;;;;;;11.28;57.74;99262.60;105670;1260;59789;-76
2023/03/24 02:51:16;;;;;;;18.80;14.60;;;;;;;11.25;57.65;99264.06;105676;1255;59810;-75
2023/03/24 02:53:53;;;;;;;17.40;13.50;;;;;;;11.22;57.78;99263.66;105883;1256;74335;-73
2023/03/24 02:56:28;;;;;;;16.30;12.80;;;;;;;11.19;58.09;99263.42;105899;1260;70561;-75
2023/03/24 02:59:02;;;;;;;15.90;14.00;;;;;;;11.16;58.22;99262.77;105605;1254;73668;-75
2023/03/24 03:01:36;;;;;;;18.40;14.10;;;;;;;11.14;58.27;99263.23;105670;1257;59682;-76
2023/03/24 03:05:05;;;;;;;16.10;13.00;;;;;;;11.11;58.20;99256.65;105687;1254;61357;-76
2023/03/24 03:07:40;;;;;;;18.20;14.00;;;;;;;11.08;58.35;99262.83;105782;1254;75830;-76
2023/03/24 03:10:14;;;;;;;16.90;14.30;;;;;;;11.06;58.56;99267.85;105622;1260;70388;-75
2023/03/24 03:12:45;;;;;;;17.40;13.50;;;;;;;11.05;58.70;99268.94;105747;1254;72906;-75
2023/03/24 03:15:22;;;;;;;19.70;13.80;;;;;;;11.02;58.90;99264.05;105652;1254;59595;-75
2023/03/24 03:17:52;;;;;;;14.90;12.20;;;;;;;10.98;59.10;99265.72;105757;1257;61324;-75
2023/03/24 03:20:23;;;;;;;18.80;13.30;;;;;;;10.95;59.31;99264.55;105839;1260;73283;-75
2023/03/24 03:22:57;;;;;;;20.10;13.80;;;;;;;10.93;59.27;99268.90;106174;1262;71265;-75
2023/03/24 03:25:28;;;;;;;16.90;13.50;;;;;;;10.90;59.43;99269.02;108586;1254;71256;-75
2023/03/24 03:27:57;;;;;;;18.30;13.00;;;;;;;10.89;59.83;99269.77;107427;1259;59292;-75
2023/03/24 03:30:32;;;;;;;17.20;14.50;;;;;;;10.87;59.60;99271.77;105827;1260;61120;-75
2023/03/24 03:33:09;;;;;;;17.00;13.40;;;;;;;10.87;60.01;99273.39;106269;1258;73219;-74
2023/03/24 03:35:41;;;;;;;15.00;12.50;;;;;;;10.87;59.92;99266.20;105778;1254;70409;-76
2023/03/24 03:38:14;;;;;;;17.10;14.00;;;;;;;10.90;60.07;99271.95;105915;1254;72656;-72
2023/03/24 03:40:58;;;;;;;;;;;;;;;10.91;60.30;99274.30;105610;1254;59921;-77
2023/03/24 03:43:30;;;;;;;16.30;12.70;;;;;;;10.92;60.57;99274.65;105710;1259;61286;-75
2023/03/24 03:45:59;;;;;;;18.10;13.60;;;;;;;10.93;60.30;99281.85;105691;1260;72454;-75
2023/03/24 03:48:33;;;;;;;;;;;;;;;10.94;60.40;99283.80;105885;1259;70441;-76
2023/03/24 03:51:01;;;;;;;17.90;12.70;;;;;;;10.94;60.61;99288.63;105843;1254;73004;-73
2023/03/24 03:53:57;;;;;;;18.40;13.10;;;;;;;10.94;60.65;99287.61;105715;1254;59541;-74
2023/03/24 03:56:30;;;;;;;16.70;13.90;;;;;;;10.93;60.95;99283.59;105842;1254;62244;-75
2023/03/24 03:59:33;;;;;;;19.60;14.40;;;;;;;10.93;60.84;99289.10;105825;1260;73135;-80
2023/03/24 04:02:35;;;;;;;18.20;12.90;;;;;;;10.92;61.23;99288.87;105916;1259;69535;-78
2023/03/24 04:05:09;;;;;;;16.70;13.40;;;;;;;10.89;61.16;99289.86;105660;1254;74794;-77
2023/03/24 04:07:47;;;;;;;17.60;13.90;;;;;;;10.86;61.34;99288.13;105680;1254;60699;-76
2023/03/24 04:10:36;;;;;;;19.00;14.20;;;;;;;10.84;61.45;99288.55;106183;1256;61485;-76
2023/03/24 04:13:25;;;;;;;18.10;13.90;;;;;;;10.83;61.45;99291.36;105794;1254;73514;-77
2023/03/24 04:16:51;;;;;;;17.50;13.70;;;;;;;10.81;61.62;99294.31;105785;1254;71316;-78
2023/03/24 04:19:36;;;;;;;;;;;;;;;10.80;61.68;99293.96;108459;1254;72910;-77
2023/03/24 04:22:23;;;;;;;19.70;14.10;;;;;;;10.79;61.40;99293.74;108461;1254;60382;-74
2023/03/24 04:25:01;;;;;;;21.40;13.70;;;;;;;10.79;61.42;99293.87;106783;1254;60493;-77
2023/03/24 04:27:38;;;;;;;18.20;14.00;;;;;;;10.80;61.27;99299.78;106127;1260;74934;-77
2023/03/24 04:30:22;;;;;;;19.50;13.80;;;;;;;10.82;61.35;99299.60;105772;1258;71166;-76
2023/03/24 04:32:59;;;;;;;17.30;13.60;;;;;;;10.83;61.50;99297.70;105762;1254;73147;-77
2023/03/24 04:35:43;;;;;;;19.00;14.40;;;;;;;10.85;61.38;99305.13;105723;1254;61283;-77
2023/03/24 04:38:26;;;;;;;18.90;13.90;;;;;;;10.86;61.51;99311.36;105722;1260;61142;-75
2023/03/24 04:41:06;;;;;;;19.40;14.00;;;;;;;10.87;61.41;99312.84;105874;1257;72979;-77
2023/03/24 04:43:36;;;;;;;17.40;14.40;;;;;;;10.89;61.55;99314.75;105803;1260;69675;-76
2023/03/24 04:46:05;;;;;;;19.10;13.50;;;;;;;10.91;61.48;99312.92;105717;1254;71440;-75
2023/03/24 04:48:54;;;;;;;16.70;13.60;;;;;;;10.93;61.42;99322.61;105848;1255;61652;-75
2023/03/24 04:51:34;;;;;;;18.10;13.60;;;;;;;10.94;61.50;99330.05;106284;1254;60460;-75
2023/03/24 04:54:14;;;;;;;18.30;13.90;;;;;;;10.97;61.31;99336.83;107762;1254;73695;-76
2023/03/24 04:56:53;;;;;;;17.20;13.20;;;;;;;11.00;61.40;99335.70;106120;1254;69525;-74
2023/03/24 04:59:23;;;;;;;21.40;14.40;;;;;;;11.04;61.20;99338.36;105978;1254;72591;-78
2023/03/24 05:01:51;;;;;;;23.00;15.50;;;;;;;11.04;61.41;99342.21;105817;1254;60544;-76
2023/03/24 05:04:50;;;;;;;22.60;15.20;;;;;;;11.04;61.36;99338.38;105751;1259;61527;-78
2023/03/24 05:07:23;;;;;;;16.90;13.90;;;;;;;11.03;61.63;99334.72;105816;1260;74188;-78
2023/03/24 05:09:56;;;;;;;18.60;15.10;;;;;;;11.03;62.21;99340.16;105974;1254;71695;-78
2023/03/24 05:12:26;;;;;;;19.70;14.30;;;;;;;11.03;62.98;99338.57;105927;1254;72887;-78
2023/03/24 05:15:13;;;;;;;19.90;13.50;;;;;;;11.00;63.19;99336.43;107200;1254;60762;-76
2023/03/24 05:17:41;;;;;;;19.10;13.60;;;;;;;10.97;63.13;99331.64;108247;1254;60091;-78
2023/03/24 05:20:10;;;;;;;18.40;13.50;;;;;;;10.95;63.08;99323.73;105982;1254;72545;-81
2023/03/24 05:22:42;;;;;;;20.80;14.20;;;;;;;10.94;63.18;99326.92;105939;1254;71645;-76
2023/03/24 05:25:11;;;;;;;19.80;13.00;;;;;;;10.91;63.23;99330.41;105918;1254;75737;-79
2023/03/24 05:27:39;;;;;;;21.20;14.70;;;;;;;10.90;63.29;99331.23;108025;1254;61538;-81
2023/03/24 05:30:16;;;;;;;17.20;14.00;;;;;;;10.91;63.27;99332.36;108443;1254;59093;-81
2023/03/24 05:32:44;;;;;;;19.30;13.90;;;;;;;10.93;63.00;99329.50;106812;1260;72242;-77
2023/03/24 05:35:14;;;;;;;19.20;14.50;;;;;;;10.97;63.08;99335.38;106011;1260;70106;-77
2023/03/24 05:37:43;;;;;;;23.10;15.50;;;;;;;11.03;62.97;99335.05;106895;1259;71582;-78
2023/03/24 05:40:12;;;;;;;19.20;13.80;;;;;;;11.08;63.03;99340.44;105895;1254;61426;-81
2023/03/24 05:42:49;;;;;;;18.30;13.90;;;;;;;11.14;62.98;99346.27;106903;1254;60348;-77
2023/03/24 05:45:18;;;;;;;22.30;16.40;;;;;;;11.21;62.92;99346.52;106139;1259;74065;-75
2023/03/24 05:47:47;;;;;;;20.60;14.80;;;;;;;11.28;62.63;99345.90;105750;1254;71617;-77
2023/03/24 05:50:17;;;;;;;19.40;14.70;;;;;;;11.36;62.53;99342.89;105712;1254;73809;-77
2023/03/24 05:52:46;;;;;;;19.70;15.00;;;;;;;11.41;62.32;99345.64;105589;1254;60633;-77
2023/03/24 05:55:29;;;;;;;21.20;14.30;;;;;;;11.46;62.27;99345.69;105777;1255;61216;-76
2023/03/24 05:58:07;;;;;;;19.00;13.90;;;;;;;11.51;62.07;99350.67;105590;1260;73875;-74
2023/03/24 06:00:48;;;;;;;20.10;13.60;;;;;;;11.55;61.99;99346.35;105882;1257;68590;-79
2023/03/24 06:03:23;;;;;;;21.20;14.80;;;;;;;11.59;61.98;99350.18;105845;1260;73752;-74
2023/03/24 06:06:02;;;;;;;16.10;13.00;;;;;;;11.65;62.02;99349.34;105680;1255;60487;-80
2023/03/24 06:08:34;;;;;;;20.00;13.90;;;;;;;11.69;62.04;99352.20;106067;1254;61056;-78
2023/03/24 06:11:04;;;;;;;17.70;14.20;;;;;;;11.76;62.04;99350.07;109227;1254;73598;-79
2023/03/24 06:13:34;;;;;;;19.60;14.60;;;;;;;11.86;61.90;99348.70;109079;1254;70251;-75
2023/03/24 06:16:06;;;;;;;16.70;13.50;;;;;;;11.97;61.78;99342.98;106141;1257;73813;-78
2023/03/24 06:18:41;;;;;;;22.30;14.10;;;;;;;12.05;61.68;99344.71;106389;1256;60618;-75
2023/03/24 06:21:19;;;;;;;22.20;14.40;;;;;;;12.11;61.59;99348.63;106098;1254;60448;-75
2023/03/24 06:23:52;;;;;;;16.60;12.80;;;;;;;12.14;61.43;99346.08;105894;1259;75046;-74
2023/03/24 06:26:29;;;;;;;17.00;13.40;;;;;;;12.17;61.34;99348.58;106008;1254;69980;-75
2023/03/24 06:29:00;;;;;;;18.10;13.30;;;;;;;12.19;61.37;99345.94;105916;1256;71818;-75
2023/03/24 06:31:34;;;;;;;20.10;14.00;;;;;;;12.21;61.41;99348.42;105888;1254;60531;-76
2023/03/24 06:34:05;;;;;;;18.50;14.50;;;;;;;12.23;61.65;99353.55;105789;1254;60454;-72
2023/03/24 06:36:34;;;;;;;18.10;13.90;;;;;;;12.23;61.71;99346.21;106044;1259;72072;-73
2023/03/24 06:39:04;;;;;;;16.50;13.40;;;;;;;12.25;61.88;99346.13;105867;1255;70998;-73
2023/03/24 06:41:33;;;;;;;17.60;14.40;;;;;;;12.28;61.91;99341.31;105847;1259;73786;-72
2023/03/24 06:44:08;;;;;;;19.90;14.90;;;;;;;12.30;62.00;99340.22;105974;1257;61402;-72
2023/03/24 06:46:39;;;;;;;17.40;13.60;;;;;;;12.32;61.95;99340.14;105881;1257;61416;-71
2023/03/24 06:49:08;;;;;;;21.00;14.20;;;;;;;12.34;62.15;99345.04;105716;1264;72231;-74
2023/03/24 06:51:36;;;;;;;17.00;13.50;;;;;;;12.36;62.08;99346.23;106326;1259;71696;-74
2023/03/24 06:54:05;;;;;;;22.30;14.60;;;;;;;12.38;62.15;99349.78;106284;1258;71875;-75
2023/03/24 06:56:35;;;;;;;19.00;13.40;;;;;;;12.42;62.18;99347.29;107020;1256;60525;-75
2023/03/24 06:59:03;;;;;;;20.40;14.00;;;;;;;12.45;62.21;99353.20;106204;1257;60426;-79
2023/03/24 07:01:34;;;;;;;17.20;14.00;;;;;;;12.46;62.29;99349.48;107213;1260;74290;-77
2023/03/24 07:04:24;;;;;;;18.20;13.30;;;;;;;12.49;62.26;99348.95;105772;1261;69534;-78
2023/03/24 07:07:03;;;;;;;16.90;14.50;;;;;;;12.52;62.17;99347.92;109047;1256;72472;-76
2023/03/24 07:10:09;;;;;;;20.80;15.60;;;;;;;12.58;62.24;99353.96;108099;1256;59261;-76
2023/03/24 07:12:39;;;;;;;21.30;14.70;;;;;;;12.62;62.24;99349.18;106378;1257;60444;-78
2023/03/24 07:15:08;;;;;;;19.30;13.40;;;;;;;12.66;62.15;99353.46;106141;1256;72884;-77
2023/03/24 07:17:40;;;;;;;21.10;13.90;;;;;;;12.70;62.13;99350.04;106016;1256;71356;-77
2023/03/24 07:20:27;;;;;;;23.00;15.20;;;;;;;12.72;62.06;99354.37;105743;1257;71582;-76
2023/03/24 07:23:13;;;;;;;20.40;14.10;;;;;;;12.72;62.04;99352.36;105837;1256;61595;-80
2023/03/24 07:26:00;;;;;;;18.20;14.50;;;;;;;12.73;62.16;99354.75;105805;1257;61288;-78
2023/03/24 07:28:49;;;;;;;19.20;14.10;;;;;;;12.75;62.10;99354.02;106379;1256;71551;-78
2023/03/24 07:31:57;;;;;;;16.50;13.80;;;;;;;12.76;62.05;99365.02;105366;1263;69674;-79
2023/03/24 07:34:27;;;;;;;21.70;15.40;;;;;;;12.78;62.17;99362.70;105840;1260;73037;-75
2023/03/24 07:36:55;;;;;;;19.40;15.90;;;;;;;12.81;62.02;99362.48;105717;1260;60415;-77
2023/03/24 07:39:26;;;;;;;20.40;14.30;;;;;;;12.84;62.02;99365.17;105927;1257;61596;-75
2023/03/24 07:41:55;;;;;;;19.70;13.90;;;;;;;12.87;61.98;99363.52;105778;1256;73871;-77
2023/03/24 07:44:31;;;;;;;20.40;14.70;;;;;;;12.90;61.94;99355.55;105822;1257;71097;-78
2023/03/24 07:47:04;;;;;;;21.60;15.10;;;;;;;12.93;61.99;99357.63;105876;1254;73366;-76
2023/03/24 07:49:33;;;;;;;20.20;14.90;;;;;;;12.97;61.92;99354.79;106045;1254;61262;-80
2023/03/24 07:52:05;;;;;;;20.40;14.90;;;;;;;13.01;61.87;99359.65;106203;1256;60396;-77
2023/03/24 07:54:47;;;;;;;17.30;14.30;;;;;;;13.03;61.76;99364.38;105942;1257;72994;-79
2023/03/24 07:57:34;;;;;;;16.10;12.90;;;;;;;13.04;61.77;99356.80;106242;1254;72688;-77
2023/03/24 08:00:16;;;;;;;21.10;14.70;;;;;;;13.04;61.73;99359.94;106009;1259;73774;-78
2023/03/24 08:02:55;;;;;;;18.50;14.60;;;;;;;13.06;61.83;99350.05;108909;1254;60351;-78
2023/03/24 08:05:51;;;;;;;16.20;13.60;;;;;;;13.13;61.78;99355.48;108239;1254;60490;-76
2023/03/24 08:08:37;;;;;;;20.50;14.00;;;;;;;13.20;61.57;99360.00;106889;1259;74190;-80
2023/03/24 08:11:05;;;;;;;17.20;13.40;;;;;;;13.24;61.48;99355.02;107062;1260;71903;-77
2023/03/24 08:13:34;;;;;;;19.20;14.20;;;;;;;13.27;61.33;99354.77;106042;1254;71882;-76
2023/03/24 08:16:03;;;;;;;17.60;13.80;;;;;;;13.30;61.37;99358.09;106294;1257;61442;-77
2023/03/24 08:18:33;;;;;;;16.70;14.00;;;;;;;13.33;61.45;99360.12;106434;1254;60304;-75
2023/03/24 08:21:05;;;;;;;18.50;13.60;;;;;;;13.34;61.42;99356.96;106110;1254;72874;-77
2023/03/24 08:23:35;;;;;;;19.80;14.20;;;;;;;13.34;61.43;99354.22;105796;1254;71140;-78
2023/03/24 08:26:03;;;;;;;17.40;14.20;;;;;;;13.36;61.43;99351.71;105924;1258;73736;-77
2023/03/24 08:28:33;;;;;;;20.50;15.50;;;;;;;13.39;61.50;99353.88;105843;1259;61549;-78
2023/03/24 08:31:03;;;;;;;19.70;15.40;;;;;;;13.41;61.65;99349.98;105909;1254;60534;-79
2023/03/24 08:33:33;;;;;;;22.70;17.00;;;;;;;13.44;61.40;99346.72;106275;1254;73129;-85
2023/03/24 08:36:02;;;;;;;21.10;15.20;;;;;;;13.47;61.32;99344.65;106872;1254;72080;-87
2023/03/24 08:38:32;;;;;;;20.80;15.00;;;;;;;13.51;61.23;99348.04;107030;1254;71616;-85
2023/03/24 08:41:05;;;;;;;21.90;13.90;;;;;;;13.54;61.14;99347.04;107402;1254;60434;-84
2023/03/24 08:43:36;;;;;;;20.10;14.50;;;;;;;13.62;61.09;99347.56;107428;1254;60450;-84
2023/03/24 08:46:11;;;;;;;18.40;14.50;;;;;;;13.70;61.01;99352.70;107099;1258;74818;-85
2023/03/24 08:48:42;;;;;;;16.70;14.30;;;;;;;13.78;60.77;99357.17;107889;1254;70365;-84
2023/03/24 08:51:14;;;;;;;22.50;14.90;;;;;;;13.86;60.53;99348.70;107124;1258;71533;-82
2023/03/24 08:53:45;;;;;;;20.80;15.90;;;;;;;13.91;60.32;99343.35;107366;1256;60306;-82
2023/03/24 08:56:13;;;;;;;22.80;16.90;;;;;;;13.98;60.27;99342.39;107689;1254;60328;-81
2023/03/24 08:58:41;;;;;;;24.90;17.40;;;;;;;14.05;60.08;99340.48;109322;1254;72835;-83
2023/03/24 09:01:09;;;;;;;25.30;18.70;;;;;;;14.15;59.78;99337.63;109113;1254;68814;-83
2023/03/24 09:03:38;;;;;;;29.70;18.10;;;;;;;14.26;59.40;99334.00;108477;1256;72367;-82
2023/03/24 09:06:07;;;;;;;22.10;17.20;;;;;;;14.38;59.26;99337.23;108652;1254;59724;-84
2023/03/24 09:08:36;;;;;;;26.00;17.60;;;;;;;14.53;58.83;99340.30;105981;1260;61182;-80
2023/03/24 09:11:05;;;;;;;23.60;17.10;;;;;;;14.64;58.29;99346.11;106062;1254;74472;-82
2023/03/24 09:13:34;;;;;;;25.20;17.70;;;;;;;14.70;58.02;99343.39;106035;1254;69888;-82
2023/03/24 09:16:02;;;;;;;23.00;16.70;;;;;;;14.76;57.86;99339.57;106119;1255;70418;-80
2023/03/24 09:18:37;;;;;;;23.70;16.40;;;;;;;14.83;57.72;99347.42;105927;1254;61419;-84
2023/03/24 09:21:05;;;;;;;21.80;15.60;;;;;;;14.87;57.57;99340.20;108291;1254;60294;-80
2023/03/24 09:23:34;;;;;;;22.90;17.00;;;;;;;14.89;57.44;99337.11;108570;1254;72443;-81
2023/03/24 09:26:02;;;;;;;22.40;17.20;;;;;;;14.90;57.44;99340.35;106934;1254;68365;-83
2023/03/24 09:28:31;;;;;;;20.10;16.20;;;;;;;14.92;57.17;99337.71;108221;1254;72384;-81
2023/03/24 09:31:01;;;;;;;20.90;16.60;;;;;;;14.95;57.07;99333.45;107881;1254;61078;-81
2023/03/24 09:33:30;;;;;;;20.90;16.00;;;;;;;15.02;57.27;99331.13;107077;1257;60543;-81
2023/03/24 09:36:00;;;;;;;27.30;18.10;;;;;;;15.09;56.93;99332.04;106493;1254;74131;-82
2023/03/24 09:38:32;;;;;;;20.00;17.60;;;;;;;15.20;56.57;99339.81;106865;1256;70660;-82
2023/03/24 09:41:03;;;;;;;19.70;15.40;;;;;;;15.27;56.28;99333.08;107474;1254;71727;-80
2023/03/24 09:43:41;;;;;;;17.90;14.50;;;;;;;15.36;56.15;99334.01;107765;1253;60426;-83
2023/03/24 09:46:20;;;;;;;20.60;15.40;;;;;;;15.43;55.79;99336.41;108773;1254;60317;-80
2023/03/24 09:48:50;;;;;;;20.90;17.90;;;;;;;15.49;55.81;99333.32;106441;1255;73723;-82
2023/03/24 09:51:22;;;;;;;22.40;16.70;;;;;;;15.55;55.68;99329.64;106848;1254;70422;-78
2023/03/24 09:53:56;;;;;;;17.10;15.30;;;;;;;15.63;55.55;99326.19;109401;1254;72744;-80
2023/03/24 09:56:25;;;;;;;21.20;14.80;;;;;;;15.75;55.33;99320.28;109346;1258;58130;-84
2023/03/24 09:59:04;;;;;;;19.40;16.00;;;;;;;15.89;55.03;99320.77;109355;1254;57987;-79
2023/03/24 10:01:35;;;;;;;18.10;14.90;;;;;;;16.11;54.65;99314.52;108912;1253;73829;-82
2023/03/24 10:04:04;;;;;;;19.70;16.10;;;;;;;16.42;54.00;99318.86;106393;1257;69906;-82
2023/03/24 10:06:41;;;;;;;22.00;16.10;;;;;;;16.69;52.99;99316.29;105937;1257;72329;-80
2023/03/24 10:09:30;;;;;;;24.30;16.50;;;;;;;16.90;52.73;99311.77;106207;1259;60405;-80
2023/03/24 10:12:10;;;;;;;21.80;16.70;;;;;;;17.14;52.38;99315.14;106200;1254;62142;-81
2023/03/24 10:15:15;;;;;;;19.00;15.10;;;;;;;17.27;51.45;99311.33;106217;1255;73728;-84
2023/03/24 10:18:12;;;;;;;21.80;14.90;;;;;;;17.19;51.56;99312.73;106139;1254;70984;-83
2023/03/24 10:21:06;;;;;;;17.10;13.50;;;;;;;17.10;51.84;99311.91;106128;1254;73917;-85
2023/03/24 10:23:39;;;;;;;17.40;14.20;;;;;;;16.98;51.88;99312.89;106525;1259;60451;-82
2023/03/24 10:26:27;;;;;;;15.90;14.20;;;;;;;16.87;52.27;99311.80;106156;1254;60583;-84
2023/03/24 10:29:20;;;;;;;19.60;16.40;;;;;;;16.80;52.47;99311.17;106199;1258;73899;-84
2023/03/24 10:31:56;;;;;;;18.20;15.10;;;;;;;16.78;52.67;99299.83;105894;1259;71578;-82
2023/03/24 10:34:31;;;;;;;18.70;14.60;;;;;;;16.85;52.70;99292.20;106195;1257;74032;-82
2023/03/24 10:37:04;;;;;;;20.70;17.10;;;;;;;16.96;52.68;99293.05;105960;1255;60622;-83
2023/03/24 10:39:32;;;;;;;20.30;16.90;;;;;;;17.06;52.41;99290.98;106137;1254;61446;-83
2023/03/24 10:42:24;;;;;;;20.10;16.60;;;;;;;17.16;52.19;99291.42;106022;1259;75083;-82
2023/03/24 10:45:00;;;;;;;20.10;15.40;;;;;;;17.21;51.96;99289.22;105915;1254;70473;-81
2023/03/24 10:47:29;;;;;;;18.70;15.10;;;;;;;17.26;51.87;99287.84;106659;1256;72525;-81
2023/03/24 10:50:11;;;;;;;18.80;14.40;;;;;;;17.38;51.64;99289.34;109153;1255;58360;-81
2023/03/24 10:52:52;;;;;;;20.30;14.70;;;;;;;17.56;51.40;99275.53;109185;1254;59369;-80
2023/03/24 10:55:22;;;;;;;16.90;14.70;;;;;;;17.81;50.91;99278.23;108739;1255;75198;-79
2023/03/24 10:57:55;;;;;;;21.30;14.70;;;;;;;18.12;50.41;99280.25;108006;1255;70344;-80
2023/03/24 11:00:28;;;;;;;16.00;13.40;;;;;;;18.43;49.71;99276.63;107717;1256;72631;-79
2023/03/24 11:03:00;;;;;;;16.10;13.10;;;;;;;18.67;48.95;99272.16;106976;1256;60581;-78
2023/03/24 11:05:34;;;;;;;16.20;12.50;;;;;;;18.77;48.61;99279.73;107557;1260;60237;-80
2023/03/24 11:08:41;;;;;;;14.50;12.10;;;;;;;18.84;48.46;99269.70;107582;1255;72662;-82
2023/03/24 11:11:14;;;;;;;14.80;11.60;;;;;;;18.94;48.24;99264.73;107174;1256;69779;-80
2023/03/24 11:13:43;;;;;;;15.50;11.80;;;;;;;18.96;48.14;99267.10;107177;1255;72827;-80
2023/03/24 11:16:13;;;;;;;12.60;11.30;;;;;;;19.03;48.16;99257.40;106019;1265;60480;-81
2023/03/24 11:19:00;;;;;;;12.80;10.20;;;;;;;19.23;47.73;99264.23;105933;1257;60841;-78
2023/03/24 11:21:29;;;;;;;11.90;10.70;;;;;;;19.43;47.26;99261.13;106599;1259;75128;-82
2023/03/24 11:23:59;;;;;;;17.70;11.00;;;;;;;19.49;46.64;99264.57;106034;1259;69433;-83
2023/03/24 11:26:34;;;;;;;12.70;10.50;;;;;;;19.43;46.70;99252.17;105971;1256;73842;-83
2023/03/24 11:29:19;;;;;;;11.90;9.80;;;;;;;19.28;46.65;99252.30;106019;1255;60684;-81
2023/03/24 11:31:56;;;;;;;14.50;11.10;;;;;;;19.09;47.16;99252.00;106149;1257;61464;-82
2023/03/24 11:34:37;;;;;;;11.00;9.80;;;;;;;19.02;47.56;99242.54;106021;1257;74796;-82
2023/03/24 11:37:17;;;;;;;12.50;9.80;;;;;;;19.05;47.48;99239.11;105955;1257;70652;-82
2023/03/24 11:39:46;;;;;;;10.50;9.50;;;;;;;19.08;47.31;99245.95;106106;1259;71651;-82
2023/03/24 11:42:15;;;;;;;15.90;9.50;;;;;;;19.05;47.22;99247.60;105921;1262;60425;-83
2023/03/24 11:44:49;;;;;;;10.30;8.30;;;;;;;19.00;47.12;99243.79;107070;1256;61255;-82
2023/03/24 11:47:35;;;;;;;11.00;9.60;;;;;;;18.97;47.18;99244.80;109170;1255;72644;-82